sensor_id;sensor_type;location;lat;lon;timestamp;P1;durP1;ratioP1;P2;durP2;ratioP2
14078;SDS011;7115;50.150;8.568;2023-02-01T00:02:26;5.47;;;3.83;;
14078;SDS011;7115;50.150;8.568;2023-02-01T00:04:54;6.23;;;3.87;;
14078;SDS011;7115;50.150;8.568;2023-02-01T00:07:21;8.20;;;4.20;;
14078;SDS011;7115;50.150;8.568;2023-02-01T00:09:48;8.97;;;4.10;;
14078;SDS011;7115;50.150;8.568;2023-02-01T00:12:15;4.27;;;3.70;;
14078;SDS011;7115;50.150;8.568;2023-02-01T00:14:41;6.00;;;3.87;;
14078;SDS011;7115;50.150;8.568;2023-02-01T00:17:08;5.50;;;4.20;;
14078;SDS011;7115;50.150;8.568;2023-02-01T00:19:35;7.53;;;4.33;;
14078;SDS011;7115;50.150;8.568;2023-02-01T00:22:03;6.03;;;4.70;;
14078;SDS011;7115;50.150;8.568;2023-02-01T00:24:30;6.17;;;4.40;;
14078;SDS011;7115;50.150;8.568;2023-02-01T00:26:57;6.47;;;3.90;;
14078;SDS011;7115;50.150;8.568;2023-02-01T00:29:24;5.70;;;4.27;;
14078;SDS011;7115;50.150;8.568;2023-02-01T00:31:51;7.73;;;4.73;;
14078;SDS011;7115;50.150;8.568;2023-02-01T00:34:18;7.97;;;4.47;;
14078;SDS011;7115;50.150;8.568;2023-02-01T00:36:46;6.70;;;4.23;;
14078;SDS011;7115;50.150;8.568;2023-02-01T00:39:15;7.27;;;4.33;;
14078;SDS011;7115;50.150;8.568;2023-02-01T00:41:42;8.40;;;4.40;;
14078;SDS011;7115;50.150;8.568;2023-02-01T00:44:09;6.83;;;4.20;;
14078;SDS011;7115;50.150;8.568;2023-02-01T00:46:37;7.33;;;4.40;;
14078;SDS011;7115;50.150;8.568;2023-02-01T00:49:04;4.60;;;4.00;;
14078;SDS011;7115;50.150;8.568;2023-02-01T00:51:33;5.83;;;4.13;;
14078;SDS011;7115;50.150;8.568;2023-02-01T00:54:00;5.10;;;3.40;;
14078;SDS011;7115;50.150;8.568;2023-02-01T00:56:29;4.33;;;3.60;;
14078;SDS011;7115;50.150;8.568;2023-02-01T00:58:56;7.17;;;4.27;;
14078;SDS011;7115;50.150;8.568;2023-02-01T01:01:23;6.67;;;3.33;;
14078;SDS011;7115;50.150;8.568;2023-02-01T01:03:52;6.47;;;3.80;;
14078;SDS011;7115;50.150;8.568;2023-02-01T01:06:21;6.67;;;3.50;;
14078;SDS011;7115;50.150;8.568;2023-02-01T01:08:50;4.80;;;3.73;;
14078;SDS011;7115;50.150;8.568;2023-02-01T01:11:18;5.53;;;3.50;;
14078;SDS011;7115;50.150;8.568;2023-02-01T01:13:48;5.50;;;3.63;;
14078;SDS011;7115;50.150;8.568;2023-02-01T01:16:16;5.63;;;3.87;;
14078;SDS011;7115;50.150;8.568;2023-02-01T01:18:44;9.50;;;4.20;;
14078;SDS011;7115;50.150;8.568;2023-02-01T01:21:13;7.77;;;4.40;;
14078;SDS011;7115;50.150;8.568;2023-02-01T01:23:41;7.53;;;4.90;;
14078;SDS011;7115;50.150;8.568;2023-02-01T01:26:09;7.60;;;4.70;;
14078;SDS011;7115;50.150;8.568;2023-02-01T01:28:39;7.00;;;4.97;;
14078;SDS011;7115;50.150;8.568;2023-02-01T01:31:08;7.73;;;4.90;;
14078;SDS011;7115;50.150;8.568;2023-02-01T01:33:36;5.67;;;4.70;;
14078;SDS011;7115;50.150;8.568;2023-02-01T01:36:04;5.50;;;4.30;;
14078;SDS011;7115;50.150;8.568;2023-02-01T01:38:31;4.67;;;4.07;;
14078;SDS011;7115;50.150;8.568;2023-02-01T01:40:58;7.13;;;4.77;;
14078;SDS011;7115;50.150;8.568;2023-02-01T01:43:25;8.50;;;4.97;;
14078;SDS011;7115;50.150;8.568;2023-02-01T01:46:07;6.13;;;4.53;;
14078;SDS011;7115;50.150;8.568;2023-02-01T01:48:35;8.47;;;4.87;;
14078;SDS011;7115;50.150;8.568;2023-02-01T01:51:02;7.10;;;4.90;;
14078;SDS011;7115;50.150;8.568;2023-02-01T01:53:37;7.87;;;5.30;;
14078;SDS011;7115;50.150;8.568;2023-02-01T01:56:07;7.50;;;5.73;;
14078;SDS011;7115;50.150;8.568;2023-02-01T01:58:34;8.47;;;5.30;;
14078;SDS011;7115;50.150;8.568;2023-02-01T02:01:01;7.63;;;5.33;;
14078;SDS011;7115;50.150;8.568;2023-02-01T02:03:30;9.40;;;5.63;;
14078;SDS011;7115;50.150;8.568;2023-02-01T02:06:01;11.33;;;6.00;;
14078;SDS011;7115;50.150;8.568;2023-02-01T02:08:31;11.23;;;6.17;;
14078;SDS011;7115;50.150;8.568;2023-02-01T02:10:58;12.73;;;6.00;;
14078;SDS011;7115;50.150;8.568;2023-02-01T02:13:28;9.17;;;6.37;;
14078;SDS011;7115;50.150;8.568;2023-02-01T02:16:04;9.23;;;5.70;;
14078;SDS011;7115;50.150;8.568;2023-02-01T02:18:44;9.03;;;5.53;;
14078;SDS011;7115;50.150;8.568;2023-02-01T02:21:23;9.97;;;6.30;;
14078;SDS011;7115;50.150;8.568;2023-02-01T02:27:19;8.13;;;5.30;;
14078;SDS011;7115;50.150;8.568;2023-02-01T02:35:51;8.17;;;5.70;;
14078;SDS011;7115;50.150;8.568;2023-02-01T02:38:27;9.67;;;6.10;;
14078;SDS011;7115;50.150;8.568;2023-02-01T02:41:01;8.37;;;5.57;;
14078;SDS011;7115;50.150;8.568;2023-02-01T02:43:37;7.23;;;5.13;;
14078;SDS011;7115;50.150;8.568;2023-02-01T02:46:32;9.17;;;4.70;;
14078;SDS011;7115;50.150;8.568;2023-02-01T02:49:27;6.40;;;4.70;;
14078;SDS011;7115;50.150;8.568;2023-02-01T02:52:05;5.03;;;4.53;;
14078;SDS011;7115;50.150;8.568;2023-02-01T02:54:57;7.47;;;4.87;;
14078;SDS011;7115;50.150;8.568;2023-02-01T02:57:26;7.93;;;4.00;;
14078;SDS011;7115;50.150;8.568;2023-02-01T03:00:15;5.17;;;4.07;;
14078;SDS011;7115;50.150;8.568;2023-02-01T03:03:03;6.30;;;3.93;;
14078;SDS011;7115;50.150;8.568;2023-02-01T03:05:51;10.13;;;4.30;;
14078;SDS011;7115;50.150;8.568;2023-02-01T03:08:18;5.53;;;3.37;;
14078;SDS011;7115;50.150;8.568;2023-02-01T03:10:53;6.63;;;3.67;;
14078;SDS011;7115;50.150;8.568;2023-02-01T03:13:28;4.70;;;3.80;;
14078;SDS011;7115;50.150;8.568;2023-02-01T03:16:03;7.87;;;4.47;;
14078;SDS011;7115;50.150;8.568;2023-02-01T03:18:36;8.10;;;4.13;;
14078;SDS011;7115;50.150;8.568;2023-02-01T03:21:11;7.40;;;3.67;;
14078;SDS011;7115;50.150;8.568;2023-02-01T03:23:42;9.07;;;3.40;;
14078;SDS011;7115;50.150;8.568;2023-02-01T03:26:12;4.20;;;3.23;;
14078;SDS011;7115;50.150;8.568;2023-02-01T03:28:42;6.93;;;3.80;;
14078;SDS011;7115;50.150;8.568;2023-02-01T03:31:14;4.33;;;2.90;;
14078;SDS011;7115;50.150;8.568;2023-02-01T03:33:41;7.23;;;3.43;;
14078;SDS011;7115;50.150;8.568;2023-02-01T03:36:15;6.07;;;3.60;;
14078;SDS011;7115;50.150;8.568;2023-02-01T03:38:50;8.40;;;3.13;;
14078;SDS011;7115;50.150;8.568;2023-02-01T03:41:27;7.13;;;3.87;;
14078;SDS011;7115;50.150;8.568;2023-02-01T03:44:01;8.63;;;3.57;;
14078;SDS011;7115;50.150;8.568;2023-02-01T03:46:35;5.43;;;3.43;;
14078;SDS011;7115;50.150;8.568;2023-02-01T03:49:08;4.80;;;3.30;;
14078;SDS011;7115;50.150;8.568;2023-02-01T03:51:40;6.43;;;3.93;;
14078;SDS011;7115;50.150;8.568;2023-02-01T03:54:08;6.27;;;3.60;;
14078;SDS011;7115;50.150;8.568;2023-02-01T03:56:40;5.47;;;3.33;;
14078;SDS011;7115;50.150;8.568;2023-02-01T03:59:10;5.07;;;3.63;;
14078;SDS011;7115;50.150;8.568;2023-02-01T04:01:38;5.40;;;3.73;;
14078;SDS011;7115;50.150;8.568;2023-02-01T04:04:05;6.73;;;3.63;;
14078;SDS011;7115;50.150;8.568;2023-02-01T04:06:32;6.43;;;3.93;;
14078;SDS011;7115;50.150;8.568;2023-02-01T04:09:00;4.50;;;3.33;;
14078;SDS011;7115;50.150;8.568;2023-02-01T04:11:27;5.13;;;3.83;;
14078;SDS011;7115;50.150;8.568;2023-02-01T04:13:55;6.00;;;3.83;;
14078;SDS011;7115;50.150;8.568;2023-02-01T04:16:22;8.47;;;4.63;;
14078;SDS011;7115;50.150;8.568;2023-02-01T04:18:49;7.90;;;3.87;;
14078;SDS011;7115;50.150;8.568;2023-02-01T04:21:15;6.03;;;3.93;;
14078;SDS011;7115;50.150;8.568;2023-02-01T04:23:42;7.87;;;3.80;;
14078;SDS011;7115;50.150;8.568;2023-02-01T04:26:11;7.63;;;4.50;;
14078;SDS011;7115;50.150;8.568;2023-02-01T04:28:38;10.03;;;4.63;;
14078;SDS011;7115;50.150;8.568;2023-02-01T04:31:04;5.73;;;4.10;;
14078;SDS011;7115;50.150;8.568;2023-02-01T04:33:31;6.37;;;4.27;;
14078;SDS011;7115;50.150;8.568;2023-02-01T04:35:58;7.03;;;4.20;;
14078;SDS011;7115;50.150;8.568;2023-02-01T04:38:25;5.50;;;4.03;;
14078;SDS011;7115;50.150;8.568;2023-02-01T04:40:53;9.40;;;4.03;;
14078;SDS011;7115;50.150;8.568;2023-02-01T04:43:21;6.63;;;4.50;;
14078;SDS011;7115;50.150;8.568;2023-02-01T04:45:48;6.37;;;3.70;;
14078;SDS011;7115;50.150;8.568;2023-02-01T04:48:16;10.70;;;3.70;;
14078;SDS011;7115;50.150;8.568;2023-02-01T04:50:44;9.33;;;3.60;;
14078;SDS011;7115;50.150;8.568;2023-02-01T04:53:14;7.13;;;3.83;;
14078;SDS011;7115;50.150;8.568;2023-02-01T04:55:41;5.67;;;3.30;;
14078;SDS011;7115;50.150;8.568;2023-02-01T04:58:09;6.23;;;3.63;;
14078;SDS011;7115;50.150;8.568;2023-02-01T05:00:38;5.53;;;2.90;;
14078;SDS011;7115;50.150;8.568;2023-02-01T05:03:05;6.37;;;3.10;;
14078;SDS011;7115;50.150;8.568;2023-02-01T05:05:32;5.87;;;3.63;;
14078;SDS011;7115;50.150;8.568;2023-02-01T05:07:59;8.03;;;3.47;;
14078;SDS011;7115;50.150;8.568;2023-02-01T05:10:26;5.63;;;3.20;;
14078;SDS011;7115;50.150;8.568;2023-02-01T05:12:53;6.97;;;3.23;;
14078;SDS011;7115;50.150;8.568;2023-02-01T05:15:40;6.27;;;2.90;;
14078;SDS011;7115;50.150;8.568;2023-02-01T05:18:07;4.87;;;3.13;;
14078;SDS011;7115;50.150;8.568;2023-02-01T05:20:34;4.33;;;2.93;;
14078;SDS011;7115;50.150;8.568;2023-02-01T05:23:01;7.00;;;3.30;;
14078;SDS011;7115;50.150;8.568;2023-02-01T05:25:28;8.90;;;3.13;;
14078;SDS011;7115;50.150;8.568;2023-02-01T05:27:54;6.63;;;3.27;;
14078;SDS011;7115;50.150;8.568;2023-02-01T05:30:21;8.03;;;3.70;;
14078;SDS011;7115;50.150;8.568;2023-02-01T05:32:51;7.20;;;3.03;;
14078;SDS011;7115;50.150;8.568;2023-02-01T05:35:19;12.27;;;3.30;;
14078;SDS011;7115;50.150;8.568;2023-02-01T05:37:46;9.60;;;3.97;;
14078;SDS011;7115;50.150;8.568;2023-02-01T05:40:13;8.57;;;3.30;;
14078;SDS011;7115;50.150;8.568;2023-02-01T05:42:40;10.77;;;3.40;;
14078;SDS011;7115;50.150;8.568;2023-02-01T05:45:07;8.77;;;2.93;;
14078;SDS011;7115;50.150;8.568;2023-02-01T05:47:35;10.47;;;3.10;;
14078;SDS011;7115;50.150;8.568;2023-02-01T05:50:04;6.77;;;3.67;;
14078;SDS011;7115;50.150;8.568;2023-02-01T05:52:32;7.20;;;3.10;;
14078;SDS011;7115;50.150;8.568;2023-02-01T05:54:59;8.87;;;3.20;;
14078;SDS011;7115;50.150;8.568;2023-02-01T05:57:26;6.90;;;2.87;;
14078;SDS011;7115;50.150;8.568;2023-02-01T05:59:53;7.90;;;3.30;;
14078;SDS011;7115;50.150;8.568;2023-02-01T06:02:19;9.13;;;3.27;;
14078;SDS011;7115;50.150;8.568;2023-02-01T06:04:48;8.73;;;2.77;;
14078;SDS011;7115;50.150;8.568;2023-02-01T06:07:16;4.60;;;2.23;;
14078;SDS011;7115;50.150;8.568;2023-02-01T06:09:43;8.50;;;3.27;;
14078;SDS011;7115;50.150;8.568;2023-02-01T06:12:10;11.43;;;3.23;;
14078;SDS011;7115;50.150;8.568;2023-02-01T06:14:37;10.97;;;2.67;;
14078;SDS011;7115;50.150;8.568;2023-02-01T06:17:04;9.17;;;2.87;;
14078;SDS011;7115;50.150;8.568;2023-02-01T06:19:32;7.10;;;2.67;;
14078;SDS011;7115;50.150;8.568;2023-02-01T06:21:59;7.87;;;3.10;;
14078;SDS011;7115;50.150;8.568;2023-02-01T06:24:27;16.60;;;3.00;;
14078;SDS011;7115;50.150;8.568;2023-02-01T06:26:54;5.70;;;2.43;;
14078;SDS011;7115;50.150;8.568;2023-02-01T06:29:21;11.93;;;2.70;;
14078;SDS011;7115;50.150;8.568;2023-02-01T06:31:48;7.40;;;2.83;;
14078;SDS011;7115;50.150;8.568;2023-02-01T06:34:15;5.00;;;2.47;;
14078;SDS011;7115;50.150;8.568;2023-02-01T06:36:42;16.27;;;3.53;;
14078;SDS011;7115;50.150;8.568;2023-02-01T06:39:08;5.63;;;2.73;;
14078;SDS011;7115;50.150;8.568;2023-02-01T06:41:37;11.70;;;2.87;;
14078;SDS011;7115;50.150;8.568;2023-02-01T06:44:04;9.67;;;3.83;;
14078;SDS011;7115;50.150;8.568;2023-02-01T06:46:30;12.77;;;2.73;;
14078;SDS011;7115;50.150;8.568;2023-02-01T06:48:57;14.33;;;2.87;;
14078;SDS011;7115;50.150;8.568;2023-02-01T06:51:25;11.43;;;3.37;;
14078;SDS011;7115;50.150;8.568;2023-02-01T06:53:54;9.10;;;2.83;;
14078;SDS011;7115;50.150;8.568;2023-02-01T06:56:21;9.17;;;2.50;;
14078;SDS011;7115;50.150;8.568;2023-02-01T06:58:50;10.77;;;2.93;;
14078;SDS011;7115;50.150;8.568;2023-02-01T07:01:17;13.03;;;3.03;;
14078;SDS011;7115;50.150;8.568;2023-02-01T07:03:46;11.43;;;2.90;;
14078;SDS011;7115;50.150;8.568;2023-02-01T07:06:14;6.97;;;2.70;;
14078;SDS011;7115;50.150;8.568;2023-02-01T07:08:40;13.27;;;3.50;;
14078;SDS011;7115;50.150;8.568;2023-02-01T07:11:08;10.13;;;3.07;;
14078;SDS011;7115;50.150;8.568;2023-02-01T07:13:36;8.07;;;3.20;;
14078;SDS011;7115;50.150;8.568;2023-02-01T07:16:06;10.00;;;2.63;;
14078;SDS011;7115;50.150;8.568;2023-02-01T07:18:35;9.53;;;3.30;;
14078;SDS011;7115;50.150;8.568;2023-02-01T07:21:03;12.33;;;3.17;;
14078;SDS011;7115;50.150;8.568;2023-02-01T07:23:30;7.27;;;2.70;;
14078;SDS011;7115;50.150;8.568;2023-02-01T07:25:58;7.97;;;2.50;;
14078;SDS011;7115;50.150;8.568;2023-02-01T07:28:27;7.53;;;2.40;;
14078;SDS011;7115;50.150;8.568;2023-02-01T07:31:01;9.77;;;2.70;;
14078;SDS011;7115;50.150;8.568;2023-02-01T07:33:30;10.57;;;2.50;;
14078;SDS011;7115;50.150;8.568;2023-02-01T07:35:57;7.77;;;2.47;;
14078;SDS011;7115;50.150;8.568;2023-02-01T07:38:26;8.70;;;2.73;;
14078;SDS011;7115;50.150;8.568;2023-02-01T07:40:56;11.57;;;3.07;;
14078;SDS011;7115;50.150;8.568;2023-02-01T07:43:24;11.27;;;2.60;;
14078;SDS011;7115;50.150;8.568;2023-02-01T07:45:52;10.63;;;2.60;;
14078;SDS011;7115;50.150;8.568;2023-02-01T07:48:19;16.37;;;2.47;;
14078;SDS011;7115;50.150;8.568;2023-02-01T07:50:48;8.10;;;2.30;;
14078;SDS011;7115;50.150;8.568;2023-02-01T07:53:15;14.80;;;2.67;;
14078;SDS011;7115;50.150;8.568;2023-02-01T07:55:42;7.40;;;2.60;;
14078;SDS011;7115;50.150;8.568;2023-02-01T07:58:09;12.43;;;2.40;;
14078;SDS011;7115;50.150;8.568;2023-02-01T08:00:35;19.60;;;2.43;;
14078;SDS011;7115;50.150;8.568;2023-02-01T08:03:21;11.73;;;2.60;;
14078;SDS011;7115;50.150;8.568;2023-02-01T08:05:49;13.40;;;2.47;;
14078;SDS011;7115;50.150;8.568;2023-02-01T08:08:20;10.70;;;2.80;;
14078;SDS011;7115;50.150;8.568;2023-02-01T08:10:47;11.53;;;3.07;;
14078;SDS011;7115;50.150;8.568;2023-02-01T08:13:14;15.87;;;2.67;;
14078;SDS011;7115;50.150;8.568;2023-02-01T08:15:41;12.93;;;3.00;;
14078;SDS011;7115;50.150;8.568;2023-02-01T08:18:08;12.17;;;2.80;;
14078;SDS011;7115;50.150;8.568;2023-02-01T08:20:37;9.10;;;2.40;;
14078;SDS011;7115;50.150;8.568;2023-02-01T08:23:08;11.90;;;3.03;;
14078;SDS011;7115;50.150;8.568;2023-02-01T08:25:35;9.37;;;2.30;;
14078;SDS011;7115;50.150;8.568;2023-02-01T08:28:03;7.77;;;2.10;;
14078;SDS011;7115;50.150;8.568;2023-02-01T08:30:30;7.60;;;2.40;;
14078;SDS011;7115;50.150;8.568;2023-02-01T08:32:58;5.70;;;2.10;;
14078;SDS011;7115;50.150;8.568;2023-02-01T08:35:27;12.73;;;2.60;;
14078;SDS011;7115;50.150;8.568;2023-02-01T08:38:09;8.07;;;2.23;;
14078;SDS011;7115;50.150;8.568;2023-02-01T08:40:36;11.53;;;2.63;;
14078;SDS011;7115;50.150;8.568;2023-02-01T08:43:03;9.10;;;2.23;;
14078;SDS011;7115;50.150;8.568;2023-02-01T08:45:30;13.17;;;2.13;;
14078;SDS011;7115;50.150;8.568;2023-02-01T08:47:58;9.77;;;2.30;;
14078;SDS011;7115;50.150;8.568;2023-02-01T08:50:25;12.63;;;2.20;;
14078;SDS011;7115;50.150;8.568;2023-02-01T08:52:53;12.83;;;2.27;;
14078;SDS011;7115;50.150;8.568;2023-02-01T08:55:21;10.13;;;1.83;;
14078;SDS011;7115;50.150;8.568;2023-02-01T08:57:48;9.90;;;2.47;;
14078;SDS011;7115;50.150;8.568;2023-02-01T09:00:16;8.83;;;1.77;;
14078;SDS011;7115;50.150;8.568;2023-02-01T09:02:44;11.13;;;2.87;;
14078;SDS011;7115;50.150;8.568;2023-02-01T09:05:11;11.93;;;2.47;;
14078;SDS011;7115;50.150;8.568;2023-02-01T09:07:40;8.03;;;2.00;;
14078;SDS011;7115;50.150;8.568;2023-02-01T09:10:07;9.47;;;2.13;;
14078;SDS011;7115;50.150;8.568;2023-02-01T09:12:37;8.40;;;2.47;;
14078;SDS011;7115;50.150;8.568;2023-02-01T09:15:05;9.00;;;2.23;;
14078;SDS011;7115;50.150;8.568;2023-02-01T09:17:33;8.17;;;2.77;;
14078;SDS011;7115;50.150;8.568;2023-02-01T09:20:01;9.47;;;2.23;;
14078;SDS011;7115;50.150;8.568;2023-02-01T09:22:29;7.07;;;1.93;;
14078;SDS011;7115;50.150;8.568;2023-02-01T09:24:56;6.70;;;1.83;;
14078;SDS011;7115;50.150;8.568;2023-02-01T09:27:23;6.67;;;2.07;;
14078;SDS011;7115;50.150;8.568;2023-02-01T09:29:51;11.47;;;2.33;;
14078;SDS011;7115;50.150;8.568;2023-02-01T09:32:19;11.97;;;2.10;;
14078;SDS011;7115;50.150;8.568;2023-02-01T09:34:47;8.73;;;1.80;;
14078;SDS011;7115;50.150;8.568;2023-02-01T09:37:14;7.90;;;2.20;;
14078;SDS011;7115;50.150;8.568;2023-02-01T09:39:41;11.57;;;1.97;;
14078;SDS011;7115;50.150;8.568;2023-02-01T09:42:16;5.00;;;1.73;;
14078;SDS011;7115;50.150;8.568;2023-02-01T09:45:01;7.83;;;2.20;;
14078;SDS011;7115;50.150;8.568;2023-02-01T09:47:34;11.10;;;2.03;;
14078;SDS011;7115;50.150;8.568;2023-02-01T09:50:03;6.53;;;2.20;;
14078;SDS011;7115;50.150;8.568;2023-02-01T09:52:36;10.57;;;2.53;;
14078;SDS011;7115;50.150;8.568;2023-02-01T09:55:07;10.10;;;2.00;;
14078;SDS011;7115;50.150;8.568;2023-02-01T09:57:43;9.27;;;2.07;;
14078;SDS011;7115;50.150;8.568;2023-02-01T10:00:19;15.63;;;2.27;;
14078;SDS011;7115;50.150;8.568;2023-02-01T10:02:50;11.73;;;1.83;;
14078;SDS011;7115;50.150;8.568;2023-02-01T10:05:21;8.33;;;2.20;;
14078;SDS011;7115;50.150;8.568;2023-02-01T10:07:58;7.90;;;1.90;;
14078;SDS011;7115;50.150;8.568;2023-02-01T10:10:31;6.57;;;2.00;;
14078;SDS011;7115;50.150;8.568;2023-02-01T10:13:19;10.33;;;2.03;;
14078;SDS011;7115;50.150;8.568;2023-02-01T10:16:04;6.23;;;1.77;;
14078;SDS011;7115;50.150;8.568;2023-02-01T10:18:44;8.90;;;2.20;;
14078;SDS011;7115;50.150;8.568;2023-02-01T10:21:27;9.33;;;1.60;;
14078;SDS011;7115;50.150;8.568;2023-02-01T10:24:17;6.23;;;1.90;;
14078;SDS011;7115;50.150;8.568;2023-02-01T10:26:57;8.83;;;2.00;;
14078;SDS011;7115;50.150;8.568;2023-02-01T10:29:31;9.90;;;2.40;;
14078;SDS011;7115;50.150;8.568;2023-02-01T10:32:03;9.30;;;2.07;;
14078;SDS011;7115;50.150;8.568;2023-02-01T10:34:38;5.27;;;1.80;;
14078;SDS011;7115;50.150;8.568;2023-02-01T10:37:09;7.17;;;1.90;;
14078;SDS011;7115;50.150;8.568;2023-02-01T10:39:45;7.40;;;1.80;;
14078;SDS011;7115;50.150;8.568;2023-02-01T10:42:14;10.03;;;1.67;;
14078;SDS011;7115;50.150;8.568;2023-02-01T10:44:42;8.47;;;1.87;;
14078;SDS011;7115;50.150;8.568;2023-02-01T10:47:13;8.83;;;2.37;;
14078;SDS011;7115;50.150;8.568;2023-02-01T10:49:43;7.33;;;2.17;;
14078;SDS011;7115;50.150;8.568;2023-02-01T10:52:16;10.00;;;1.70;;
14078;SDS011;7115;50.150;8.568;2023-02-01T10:54:46;8.87;;;2.03;;
14078;SDS011;7115;50.150;8.568;2023-02-01T10:57:20;8.50;;;2.00;;
14078;SDS011;7115;50.150;8.568;2023-02-01T10:59:50;12.27;;;1.90;;
14078;SDS011;7115;50.150;8.568;2023-02-01T11:02:23;11.07;;;2.13;;
14078;SDS011;7115;50.150;8.568;2023-02-01T11:04:58;12.07;;;2.07;;
14078;SDS011;7115;50.150;8.568;2023-02-01T11:07:27;11.60;;;1.97;;
14078;SDS011;7115;50.150;8.568;2023-02-01T11:09:55;8.23;;;1.73;;
14078;SDS011;7115;50.150;8.568;2023-02-01T11:12:28;8.30;;;1.73;;
14078;SDS011;7115;50.150;8.568;2023-02-01T11:14:57;10.07;;;1.80;;
14078;SDS011;7115;50.150;8.568;2023-02-01T11:17:32;7.07;;;1.60;;
14078;SDS011;7115;50.150;8.568;2023-02-01T11:20:01;5.03;;;1.93;;
14078;SDS011;7115;50.150;8.568;2023-02-01T11:22:31;12.63;;;2.97;;
14078;SDS011;7115;50.150;8.568;2023-02-01T11:24:59;7.47;;;1.63;;
14078;SDS011;7115;50.150;8.568;2023-02-01T11:27:33;12.13;;;2.40;;
14078;SDS011;7115;50.150;8.568;2023-02-01T11:30:14;7.87;;;1.57;;
14078;SDS011;7115;50.150;8.568;2023-02-01T11:32:45;7.37;;;1.63;;
14078;SDS011;7115;50.150;8.568;2023-02-01T11:35:15;9.77;;;1.73;;
14078;SDS011;7115;50.150;8.568;2023-02-01T11:37:48;13.70;;;1.80;;
14078;SDS011;7115;50.150;8.568;2023-02-01T11:40:24;4.60;;;1.50;;
14078;SDS011;7115;50.150;8.568;2023-02-01T11:42:53;9.40;;;1.97;;
14078;SDS011;7115;50.150;8.568;2023-02-01T11:45:24;4.67;;;1.73;;
14078;SDS011;7115;50.150;8.568;2023-02-01T11:47:56;5.50;;;1.23;;
14078;SDS011;7115;50.150;8.568;2023-02-01T11:50:26;9.37;;;1.60;;
14078;SDS011;7115;50.150;8.568;2023-02-01T11:53:02;4.23;;;1.70;;
14078;SDS011;7115;50.150;8.568;2023-02-01T11:55:52;6.97;;;1.63;;
14078;SDS011;7115;50.150;8.568;2023-02-01T12:01:34;9.27;;;2.00;;
14078;SDS011;7115;50.150;8.568;2023-02-01T12:04:16;9.23;;;2.03;;
14078;SDS011;7115;50.150;8.568;2023-02-01T12:07:10;7.13;;;1.30;;
14078;SDS011;7115;50.150;8.568;2023-02-01T12:09:46;9.27;;;2.00;;
14078;SDS011;7115;50.150;8.568;2023-02-01T12:12:25;10.13;;;2.60;;
14078;SDS011;7115;50.150;8.568;2023-02-01T12:15:08;9.33;;;2.60;;
14078;SDS011;7115;50.150;8.568;2023-02-01T12:18:01;7.37;;;1.60;;
14078;SDS011;7115;50.150;8.568;2023-02-01T12:20:58;6.97;;;1.60;;
14078;SDS011;7115;50.150;8.568;2023-02-01T12:23:40;10.00;;;3.13;;
14078;SDS011;7115;50.150;8.568;2023-02-01T12:26:25;10.17;;;1.83;;
14078;SDS011;7115;50.150;8.568;2023-02-01T12:29:12;5.27;;;1.30;;
14078;SDS011;7115;50.150;8.568;2023-02-01T12:31:53;6.37;;;1.60;;
14078;SDS011;7115;50.150;8.568;2023-02-01T12:34:52;6.13;;;1.50;;
14078;SDS011;7115;50.150;8.568;2023-02-01T12:37:45;6.30;;;1.50;;
14078;SDS011;7115;50.150;8.568;2023-02-01T12:40:25;9.73;;;2.03;;
14078;SDS011;7115;50.150;8.568;2023-02-01T12:43:03;6.80;;;1.43;;
14078;SDS011;7115;50.150;8.568;2023-02-01T12:45:38;11.63;;;2.00;;
14078;SDS011;7115;50.150;8.568;2023-02-01T12:48:13;9.57;;;1.97;;
14078;SDS011;7115;50.150;8.568;2023-02-01T12:50:50;9.03;;;1.83;;
14078;SDS011;7115;50.150;8.568;2023-02-01T12:53:23;8.30;;;1.93;;
14078;SDS011;7115;50.150;8.568;2023-02-01T12:55:54;3.80;;;1.37;;
14078;SDS011;7115;50.150;8.568;2023-02-01T12:58:24;11.17;;;1.70;;
14078;SDS011;7115;50.150;8.568;2023-02-01T13:00:58;7.20;;;1.50;;
14078;SDS011;7115;50.150;8.568;2023-02-01T13:03:29;11.50;;;1.70;;
14078;SDS011;7115;50.150;8.568;2023-02-01T13:06:02;9.40;;;1.80;;
14078;SDS011;7115;50.150;8.568;2023-02-01T13:08:38;5.77;;;1.37;;
14078;SDS011;7115;50.150;8.568;2023-02-01T13:11:10;8.40;;;1.97;;
14078;SDS011;7115;50.150;8.568;2023-02-01T13:13:44;5.50;;;1.37;;
14078;SDS011;7115;50.150;8.568;2023-02-01T13:16:21;6.77;;;1.63;;
14078;SDS011;7115;50.150;8.568;2023-02-01T13:18:57;7.67;;;2.23;;
14078;SDS011;7115;50.150;8.568;2023-02-01T13:21:31;11.67;;;1.80;;
14078;SDS011;7115;50.150;8.568;2023-02-01T13:24:03;5.97;;;1.60;;
14078;SDS011;7115;50.150;8.568;2023-02-01T13:26:30;9.80;;;1.73;;
14078;SDS011;7115;50.150;8.568;2023-02-01T13:28:58;6.17;;;1.80;;
14078;SDS011;7115;50.150;8.568;2023-02-01T13:31:41;7.80;;;1.50;;
14078;SDS011;7115;50.150;8.568;2023-02-01T13:34:37;11.77;;;1.80;;
14078;SDS011;7115;50.150;8.568;2023-02-01T13:37:40;9.20;;;1.60;;
14078;SDS011;7115;50.150;8.568;2023-02-01T13:40:33;9.77;;;1.50;;
14078;SDS011;7115;50.150;8.568;2023-02-01T13:43:06;5.47;;;1.33;;
14078;SDS011;7115;50.150;8.568;2023-02-01T13:45:42;6.97;;;1.27;;
14078;SDS011;7115;50.150;8.568;2023-02-01T13:48:17;9.10;;;2.10;;
14078;SDS011;7115;50.150;8.568;2023-02-01T13:50:50;10.87;;;1.90;;
14078;SDS011;7115;50.150;8.568;2023-02-01T13:53:21;9.20;;;1.63;;
14078;SDS011;7115;50.150;8.568;2023-02-01T13:55:56;7.97;;;1.40;;
14078;SDS011;7115;50.150;8.568;2023-02-01T13:58:29;6.67;;;1.73;;
14078;SDS011;7115;50.150;8.568;2023-02-01T14:04:02;5.93;;;1.00;;
14078;SDS011;7115;50.150;8.568;2023-02-01T14:09:16;9.37;;;2.17;;
14078;SDS011;7115;50.150;8.568;2023-02-01T14:15:24;8.97;;;1.60;;
14078;SDS011;7115;50.150;8.568;2023-02-01T14:17:53;8.97;;;1.27;;
14078;SDS011;7115;50.150;8.568;2023-02-01T14:23:15;6.40;;;1.73;;
14078;SDS011;7115;50.150;8.568;2023-02-01T14:26:01;13.87;;;2.20;;
14078;SDS011;7115;50.150;8.568;2023-02-01T14:28:45;8.57;;;1.40;;
14078;SDS011;7115;50.150;8.568;2023-02-01T14:31:31;5.80;;;1.53;;
14078;SDS011;7115;50.150;8.568;2023-02-01T14:34:16;10.70;;;1.73;;
14078;SDS011;7115;50.150;8.568;2023-02-01T14:36:50;5.27;;;1.53;;
14078;SDS011;7115;50.150;8.568;2023-02-01T14:39:33;7.40;;;1.30;;
14078;SDS011;7115;50.150;8.568;2023-02-01T14:42:04;10.07;;;1.40;;
14078;SDS011;7115;50.150;8.568;2023-02-01T14:44:44;6.63;;;1.77;;
14078;SDS011;7115;50.150;8.568;2023-02-01T14:47:30;9.93;;;1.77;;
14078;SDS011;7115;50.150;8.568;2023-02-01T14:53:04;10.67;;;1.90;;
14078;SDS011;7115;50.150;8.568;2023-02-01T14:55:47;8.27;;;1.83;;
14078;SDS011;7115;50.150;8.568;2023-02-01T14:58:19;5.40;;;1.13;;
14078;SDS011;7115;50.150;8.568;2023-02-01T15:01:00;7.23;;;1.60;;
14078;SDS011;7115;50.150;8.568;2023-02-01T15:03:34;8.07;;;1.20;;
14078;SDS011;7115;50.150;8.568;2023-02-01T15:06:16;6.40;;;1.83;;
14078;SDS011;7115;50.150;8.568;2023-02-01T15:08:52;9.90;;;1.93;;
14078;SDS011;7115;50.150;8.568;2023-02-01T15:11:21;9.83;;;1.83;;
14078;SDS011;7115;50.150;8.568;2023-02-01T15:13:49;11.13;;;1.80;;
14078;SDS011;7115;50.150;8.568;2023-02-01T15:16:20;7.80;;;1.60;;
14078;SDS011;7115;50.150;8.568;2023-02-01T15:18:50;8.07;;;1.60;;
14078;SDS011;7115;50.150;8.568;2023-02-01T15:21:42;6.67;;;1.40;;
14078;SDS011;7115;50.150;8.568;2023-02-01T15:24:12;7.80;;;1.33;;
14078;SDS011;7115;50.150;8.568;2023-02-01T15:26:40;5.67;;;1.40;;
14078;SDS011;7115;50.150;8.568;2023-02-01T15:29:11;8.37;;;1.47;;
14078;SDS011;7115;50.150;8.568;2023-02-01T15:31:41;7.00;;;1.50;;
14078;SDS011;7115;50.150;8.568;2023-02-01T15:34:12;8.27;;;1.70;;
14078;SDS011;7115;50.150;8.568;2023-02-01T15:36:39;9.83;;;2.10;;
14078;SDS011;7115;50.150;8.568;2023-02-01T15:39:19;10.80;;;1.97;;
14078;SDS011;7115;50.150;8.568;2023-02-01T15:41:49;6.77;;;1.87;;
14078;SDS011;7115;50.150;8.568;2023-02-01T15:44:27;13.20;;;1.77;;
14078;SDS011;7115;50.150;8.568;2023-02-01T15:46:58;8.17;;;1.97;;
14078;SDS011;7115;50.150;8.568;2023-02-01T15:49:28;5.43;;;1.40;;
14078;SDS011;7115;50.150;8.568;2023-02-01T15:51:59;8.67;;;1.07;;
14078;SDS011;7115;50.150;8.568;2023-02-01T15:54:27;9.03;;;2.20;;